Terminal Aerodrome Forecast
Issued by NWS Mt. Holly, NJ

Home | Current Version | Previous Version | Text Only | Print | Product List | Glossary On
Versions: 1 2 3 4 5 6 7 8 9 10 11 12 13 14 15 16 17 18 19 20 21 22 23 24 25 26 27 28 29 30 31 32 33 34 35 36 37 38
000
FTAK31 PANC 281138
TAFABE
TAF
PABE 281138Z 2812/2912 35010KT P6SM SCT025 SCT200
     FM281400 33005KT 2SM BR BKN002
     FM281800 34010KT P6SM SCT005 BKN015
     FM282300 34012KT P6SM FEW015 SCT025 BKN200
     FM290600 34006KT P6SM OVC050=

USA.gov is the U.S. government's official web portal to all federal, state and local government web resources and services.